.
WxDataArchive / Data Records for 2008-11-26
2008-11-25 November 2008 2008-11-27

Data Records for Wednesday, 26 November 2008

Time	Temp	Chill	HIndex	Humid	Dewpt	 Wind 	HiWind	WindDir	Rain 	Barom 
-----	----	-----	------	-----	-----	------	------	-------	-----	----- 
00:00	34.6	34.6	34.6	67	24.8	1	3	270	0.00	30.031 
00:05	34.6	34.6	34.6	67	24.8	1	3	248	0.00	30.029 
00:10	34.6	34.6	34.6	67	24.8	1	2	248	0.00	30.028 
00:15	34.4	34.4	34.4	68	24.9	1	4	248	0.00	30.028 
00:20	34.4	34.4	34.4	67	24.6	1	4	248	0.00	30.030 
00:25	34.4	34.4	34.4	67	24.6	1	5	248	0.00	30.029 
00:30	34.4	34.4	34.4	67	24.6	1	3	248	0.00	30.025 
00:35	34.4	34.4	34.4	67	24.6	1	4	225	0.00	30.026 
00:40	34.4	34.4	34.4	67	24.6	1	4	248	0.00	30.025 
00:45	34.3	34.3	34.3	68	24.9	1	4	248	0.00	30.026 
00:50	34.3	34.3	34.3	68	24.9	2	4	248	0.00	30.025 
00:55	34.3	34.3	34.3	68	24.9	1	3	248	0.00	30.022 
01:00	34.1	34.1	34.1	68	24.7	0	2	248	0.00	30.020 
01:05	34.1	34.1	34.1	68	24.7	1	2	248	0.00	30.020 
01:10	34.1	34.1	34.1	68	24.7	0	2	248	0.00	30.018 
01:15	34.1	34.1	34.1	67	24.3	2	5	248	0.00	30.019 
01:20	34.1	34.1	34.1	67	24.3	1	4	248	0.00	30.019 
01:25	34.1	34.1	34.1	67	24.3	1	2	248	0.00	30.020 
01:30	34.1	34.1	34.1	67	24.3	1	3	248	0.00	30.019 
01:35	34.1	34.1	34.1	67	24.3	0	2	225	0.00	30.019 
01:40	34.0	34.0	34.0	67	24.2	1	5	248	0.00	30.019 
01:45	34.0	34.0	34.0	68	24.6	1	5	248	0.00	30.019 
01:50	33.8	33.8	33.8	68	24.4	1	4	248	0.00	30.019 
01:55	33.8	33.8	33.8	68	24.4	1	3	248	0.00	30.018 
02:00	33.7	33.7	33.7	68	24.3	2	3	248	0.00	30.017 
02:05	33.7	33.7	33.7	68	24.3	1	2	248	0.00	30.016 
02:10	33.5	33.5	33.5	69	24.4	1	5	248	0.00	30.017 
02:15	33.5	33.5	33.5	69	24.4	2	4	248	0.00	30.016 
02:20	33.4	33.4	33.4	69	24.3	1	5	248	0.00	30.019 
02:25	33.4	33.4	33.4	69	24.3	1	3	248	0.00	30.019 
02:30	33.2	33.2	33.2	69	24.2	1	3	248	0.00	30.019 
02:35	33.1	33.1	33.1	69	24.1	2	5	248	0.00	30.019 
02:40	33.1	33.1	33.1	69	24.1	1	5	270	0.00	30.019 
02:45	33.1	33.1	33.1	69	24.1	1	4	270	0.00	30.019 
02:50	32.9	32.9	32.9	69	23.9	1	3	270	0.00	30.020 
02:55	32.8	32.8	32.8	69	23.8	1	6	248	0.00	30.018 
03:00	32.5	32.5	32.5	69	23.5	1	2	270	0.00	30.019 
03:05	32.4	32.4	32.4	70	23.7	1	3	248	0.00	30.018 
03:10	32.2	32.2	32.2	70	23.5	1	4	248	0.00	30.019 
03:15	31.9	31.9	31.9	71	23.6	1	3	248	0.00	30.020 
03:20	31.8	31.8	31.8	71	23.5	1	5	248	0.00	30.020 
03:25	31.5	31.5	31.5	72	23.5	1	3	248	0.00	30.020 
03:30	31.3	31.3	31.3	72	23.3	1	4	248	0.00	30.022 
03:35	31.2	31.2	31.2	72	23.2	1	3	248	0.00	30.022 
03:40	31.2	31.2	31.2	73	23.6	0	3	248	0.00	30.021 
03:45	31.0	31.0	31.0	73	23.4	1	4	248	0.00	30.021 
03:50	31.0	31.0	31.0	73	23.4	1	5	248	0.00	30.022 
03:55	30.9	30.9	30.9	73	23.3	0	1	248	0.00	30.022 
04:00	30.7	30.7	30.7	73	23.1	0	1	248	0.00	30.023 
04:05	30.6	30.6	30.6	73	23.0	0	1	248	0.00	30.022 
04:10	30.6	30.6	30.6	74	23.3	0	4	248	0.00	30.022 
04:15	30.6	30.6	30.6	74	23.3	0	3	248	0.00	30.022 
04:20	30.7	30.7	30.7	74	23.4	1	3	248	0.00	30.021 
04:25	30.9	30.9	30.9	74	23.6	1	5	248	0.00	30.021 
04:30	31.0	31.0	31.0	74	23.7	0	3	248	0.00	30.021 
04:35	31.2	31.2	31.2	74	23.9	0	2	248	0.00	30.021 
04:40	31.2	31.2	31.2	74	23.9	0	1	248	0.00	30.022 
04:45	31.2	31.2	31.2	74	23.9	0	3	248	0.00	30.021 
04:50	31.2	31.2	31.2	74	23.9	0	2	248	0.00	30.021 
04:55	31.0	31.0	31.0	74	23.7	1	4	248	0.00	30.021 
05:00	31.0	31.0	31.0	74	23.7	0	2	248	0.00	30.020 
05:05	30.9	30.9	30.9	75	23.9	0	2	248	0.00	30.019 
05:10	30.7	30.7	30.7	75	23.7	0	3	248	0.00	30.020 
05:15	30.7	30.7	30.7	75	23.7	1	3	248	0.00	30.020 
05:20	30.6	30.6	30.6	75	23.6	0	3	248	0.00	30.020 
05:25	30.6	30.6	30.6	75	23.6	0	3	248	0.00	30.020 
05:30	30.4	30.4	30.4	76	23.8	0	2	248	0.00	30.020 
05:35	30.3	30.3	30.3	76	23.7	1	4	248	0.00	30.018 
05:40	30.3	30.3	30.3	76	23.7	0	2	248	0.00	30.017 
05:45	30.1	30.1	30.1	76	23.5	0	1	248	0.00	30.019 
05:50	30.1	30.1	30.1	77	23.8	0	2	248	0.00	30.019 
05:55	30.1	30.1	30.1	77	23.8	0	1	248	0.00	30.020 
06:00	30.1	30.1	30.1	77	23.8	0	1	248	0.00	30.022 
06:05	30.0	30.0	30.0	77	23.7	0	1	248	0.00	30.022 
06:10	29.8	29.8	29.8	77	23.5	0	1	248	0.00	30.022 
06:15	29.7	29.7	29.7	77	23.4	0	1	248	0.00	30.023 
06:20	29.7	29.7	29.7	77	23.4	1	3	248	0.00	30.024 
06:25	29.5	29.5	29.5	77	23.2	0	1	248	0.00	30.024 
06:30	29.5	29.5	29.5	78	23.5	0	2	248	0.00	30.025 
06:35	29.4	29.4	29.4	78	23.4	0	1	248	0.00	30.025 
06:40	29.4	29.4	29.4	78	23.4	1	3	248	0.00	30.024 
06:45	29.3	29.3	29.3	78	23.3	0	3	248	0.00	30.024 
06:50	29.3	29.3	29.3	78	23.3	1	2	248	0.00	30.025 
06:55	29.3	29.3	29.3	79	23.6	1	3	248	0.00	30.025 
07:00	29.3	29.3	29.3	79	23.6	1	2	248	0.00	30.025 
07:05	29.3	29.3	29.3	79	23.6	0	1	248	0.00	30.024 
07:10	29.1	29.1	29.1	79	23.4	1	3	248	0.00	30.024 
07:15	29.1	29.1	29.1	80	23.7	1	3	248	0.00	30.026 
07:20	29.0	29.0	29.0	80	23.6	1	3	248	0.00	30.030 
07:25	29.0	29.0	29.0	80	23.6	1	4	248	0.00	30.032 
07:30	29.0	29.0	29.0	80	23.6	1	4	248	0.00	30.031 
07:35	28.8	28.8	28.8	80	23.4	1	3	248	0.00	30.030 
07:40	28.8	28.8	28.8	81	23.7	1	2	248	0.00	30.033 
07:45	28.7	28.7	28.7	81	23.6	1	4	248	0.00	30.034 
07:50	28.7	28.7	28.7	81	23.6	1	3	248	0.00	30.035 
07:55	28.7	28.7	28.7	81	23.6	1	3	248	0.00	30.036 
08:00	28.7	28.7	28.7	81	23.6	1	3	248	0.00	30.037 
08:05	28.7	28.7	28.7	81	23.6	1	2	248	0.00	30.037 
08:10	28.7	28.7	28.7	81	23.6	1	5	248	0.00	30.037 
08:15	28.8	28.8	28.8	81	23.7	1	3	248	0.00	30.038 
08:20	28.8	28.8	28.8	81	23.7	1	3	248	0.00	30.038 
08:25	29.0	29.0	29.0	81	23.9	1	4	248	0.00	30.039 
08:30	29.0	29.0	29.0	81	23.9	1	3	248	0.00	30.041 
08:35	29.1	29.1	29.1	81	24.0	2	5	248	0.00	30.041 
08:40	29.3	29.3	29.3	81	24.2	1	4	248	0.00	30.041 
08:45	29.4	29.4	29.4	81	24.3	1	3	248	0.00	30.043 
08:50	29.5	29.5	29.5	80	24.1	1	6	248	0.00	30.044 
08:55	29.5	29.5	29.5	79	23.8	1	4	270	0.00	30.044 
09:00	29.7	29.7	29.7	79	24.0	1	4	248	0.00	30.050 
09:05	30.0	30.0	30.0	79	24.3	1	3	248	0.00	30.049 
09:10	30.1	30.1	30.1	78	24.1	1	3	248	0.00	30.051 
09:15	30.1	30.1	30.1	78	24.1	2	9	225	0.00	30.050 
09:20	30.3	30.3	30.3	78	24.3	1	4	225	0.00	30.050 
09:25	30.6	30.6	30.6	78	24.6	1	3	248	0.00	30.050 
09:30	30.9	30.9	30.9	77	24.6	2	5	248	0.00	30.046 
09:35	31.2	31.2	31.2	76	24.5	2	7	248	0.00	30.045 
09:40	31.5	31.5	31.5	75	24.5	2	5	248	0.00	30.045 
09:45	31.8	31.8	31.8	75	24.8	1	5	248	0.00	30.049 
09:50	32.2	32.2	32.2	74	24.9	0	2	248	0.00	30.050 
09:55	32.7	32.7	32.7	73	25.0	0	2	248	0.00	30.046 
10:00	32.9	32.9	32.9	71	24.5	1	3	248	0.00	30.042 
10:05	33.2	33.2	33.2	71	24.8	1	4	248	0.00	30.039 
10:10	33.5	33.5	33.5	70	24.8	1	5	248	0.00	30.040 
10:15	33.8	33.8	33.8	69	24.7	1	3	248	0.00	30.043 
10:20	34.0	34.0	34.0	68	24.6	2	7	248	0.00	30.040 
10:25	34.3	34.3	34.3	68	24.9	2	3	270	0.00	30.038 
10:30	34.4	34.4	34.4	67	24.6	2	6	248	0.00	30.038 
10:35	34.6	34.6	34.6	65	24.1	2	6	270	0.00	30.038 
10:40	35.0	35.0	35.0	65	24.4	2	5	248	0.00	30.038 
10:45	35.3	35.3	35.3	65	24.7	2	4	248	0.00	30.037 
10:50	35.5	35.5	35.5	63	24.2	3	6	248	0.00	30.036 
10:55	35.6	35.6	35.6	63	24.3	3	6	248	0.00	30.036 
11:00	35.5	35.5	35.5	62	23.8	2	9	248	0.00	30.034 
11:05	35.2	35.2	35.2	62	23.5	3	7	248	0.00	30.032 
11:10	35.5	35.5	35.5	63	24.2	3	6	248	0.00	30.032 
11:15	36.0	36.0	36.0	63	24.6	2	4	248	0.00	30.030 
11:20	36.3	36.3	36.3	61	24.2	3	10	248	0.00	30.029 
11:25	36.5	36.5	36.5	61	24.3	3	6	248	0.00	30.024 
11:30	36.8	36.8	36.8	61	24.6	2	4	248	0.00	30.017 
11:35	37.0	37.0	37.0	60	24.4	2	4	248	0.00	30.017 
11:40	37.3	37.3	37.3	58	23.9	1	3	270	0.00	30.016 
11:45	37.3	37.3	37.3	58	23.9	3	9	248	0.00	30.014 
11:50	37.3	37.3	37.3	58	23.9	2	7	248	0.00	30.013 
11:55	37.6	37.6	37.6	58	24.2	3	6	270	0.00	30.008 
12:00	37.8	37.8	37.8	58	24.4	2	5	270	0.00	30.008 
12:05	37.9	37.9	37.9	57	24.0	2	8	248	0.00	30.005 
12:10	38.2	38.2	38.2	57	24.3	3	7	248	0.00	30.003 
12:15	38.2	38.2	38.2	55	23.5	3	10	248	0.00	30.000 
12:20	38.2	38.2	38.2	56	23.9	3	7	248	0.00	29.999 
12:25	38.5	38.5	38.5	56	24.2	2	6	248	0.00	29.999 
12:30	38.5	38.5	38.5	56	24.2	2	7	248	0.00	29.998 
12:35	38.6	38.6	38.6	55	23.8	2	4	248	0.00	29.998 
12:40	38.6	38.6	38.6	55	23.8	2	7	248	0.00	29.996 
12:45	38.9	38.9	38.9	54	23.7	2	5	248	0.00	29.990 
12:50	39.3	39.3	39.3	54	24.1	2	7	248	0.00	29.986 
12:55	39.3	39.3	39.3	53	23.6	3	7	248	0.00	29.986 
13:00	39.2	39.2	39.2	56	24.8	1	4	225	0.00	29.983 
13:05	39.5	39.5	39.5	55	24.7	2	6	270	0.00	29.983 
13:10	39.6	39.6	39.6	55	24.8	1	3	248	0.00	29.980 
13:15	39.9	39.9	39.9	54	24.6	2	4	248	0.00	29.979 
13:20	39.8	39.8	39.8	54	24.5	2	5	248	0.00	29.977 
13:25	39.5	39.5	39.5	54	24.2	2	7	248	0.00	29.972 
13:30	39.5	39.5	39.5	55	24.7	2	6	248	0.00	29.969 
13:35	39.6	39.6	39.6	53	23.9	3	9	270	0.00	29.969 
13:40	39.3	39.3	39.3	54	24.1	2	6	270	0.00	29.971 
13:45	39.5	39.5	39.5	53	23.8	1	4	248	0.00	29.966 
13:50	40.1	40.1	40.1	54	24.8	1	3	248	0.00	29.966 
13:55	40.2	40.2	40.2	52	24.0	1	4	248	0.00	29.966 
14:00	40.2	40.2	40.2	51	23.5	2	6	270	0.00	29.966 
14:05	40.2	40.2	40.2	52	24.0	2	7	225	0.00	29.967 
14:10	40.2	40.2	40.2	49	22.6	3	6	270	0.00	29.965 
14:15	40.3	40.3	40.3	50	23.2	1	4	248	0.00	29.962 
14:20	40.6	40.6	40.6	49	23.0	2	5	248	0.00	29.959 
14:25	40.9	40.9	40.9	50	23.7	2	6	248	0.00	29.960 
14:30	40.9	40.9	40.9	49	23.2	2	6	270	0.00	29.957 
14:35	40.9	40.9	40.9	48	22.7	2	4	270	0.00	29.958 
14:40	40.8	40.8	40.8	48	22.6	2	5	270	0.00	29.959 
14:45	40.6	40.6	40.6	49	23.0	1	4	270	0.00	29.958 
14:50	40.6	40.6	40.6	48	22.5	3	9	248	0.00	29.959 
14:55	40.8	40.8	40.8	49	23.1	2	8	248	0.00	29.959 
15:00	40.6	40.6	40.6	49	23.0	1	3	270	0.00	29.957 
15:05	40.6	40.6	40.6	50	23.4	2	5	270	0.00	29.959 
15:10	40.8	40.8	40.8	48	22.6	3	6	248	0.00	29.959 
15:15	41.1	41.1	41.1	48	22.9	3	7	248	0.00	29.956 
15:20	40.9	40.9	40.9	48	22.7	3	8	270	0.00	29.955 
15:25	40.9	40.9	40.9	49	23.2	1	6	248	0.00	29.956 
15:30	40.9	40.9	40.9	48	22.7	3	10	248	0.00	29.956 
15:35	40.9	40.9	40.9	49	23.2	3	7	248	0.00	29.956 
15:40	40.9	40.9	40.9	50	23.7	2	5	248	0.00	29.956 
15:45	40.9	40.9	40.9	48	22.7	2	6	248	0.00	29.958 
15:50	40.6	40.6	40.6	49	23.0	1	4	248	0.00	29.960 
15:55	40.5	40.5	40.5	49	22.9	1	4	248	0.00	29.959 
16:00	40.3	40.3	40.3	49	22.7	2	6	248	0.00	29.966 
16:05	40.2	40.2	40.2	50	23.1	1	3	248	0.00	29.968 
16:10	40.1	40.1	40.1	50	23.0	1	3	225	0.00	29.968 
16:15	39.9	39.9	39.9	50	22.8	2	5	248	0.00	29.969 
16:20	39.8	39.8	39.8	51	23.2	1	2	248	0.00	29.970 
16:25	39.6	39.6	39.6	51	23.0	2	7	248	0.00	29.969 
16:30	39.5	39.5	39.5	52	23.3	0	2	248	0.00	29.969 
16:35	39.3	39.3	39.3	52	23.2	1	5	248	0.00	29.969 
16:40	39.2	39.2	39.2	53	23.5	1	4	248	0.00	29.970 
16:45	39.1	39.1	39.1	53	23.4	1	3	248	0.00	29.969 
16:50	38.8	38.8	38.8	53	23.2	1	4	248	0.00	29.968 
16:55	38.5	38.5	38.5	54	23.3	0	2	248	0.00	29.968 
17:00	38.3	38.3	38.3	55	23.6	0	1	225	0.00	29.969 
17:05	38.0	38.0	38.0	55	23.3	0	1	225	0.00	29.967 
17:10	37.6	37.6	37.6	56	23.3	1	4	248	0.00	29.967 
17:15	37.5	37.5	37.5	56	23.2	1	3	248	0.00	29.965 
17:20	37.3	37.3	37.3	57	23.5	0	2	248	0.00	29.964 
17:25	37.0	37.0	37.0	57	23.2	0	3	248	0.00	29.965 
17:30	36.9	36.9	36.9	58	23.5	0	2	248	0.00	29.964 
17:35	36.6	36.6	36.6	58	23.2	0	1	248	0.00	29.967 
17:40	36.3	36.3	36.3	58	23.0	0	1	248	0.00	29.967 
17:45	36.0	36.0	36.0	59	23.1	0	1	248	0.00	29.966 
17:50	35.9	35.9	35.9	60	23.4	0	2	248	0.00	29.968 
17:55	35.6	35.6	35.6	60	23.1	0	1	248	0.00	29.971 
18:00	35.3	35.3	35.3	61	23.2	0	1	248	0.00	29.975 
18:05	34.9	34.9	34.9	61	22.8	0	1	248	0.00	29.975 
18:10	34.6	34.6	34.6	62	22.9	0	0	---	0.00	29.975 
18:15	34.3	34.3	34.3	62	22.7	0	0	---	0.00	29.976 
18:20	33.8	33.8	33.8	63	22.6	0	0	---	0.00	29.977 
18:25	33.5	33.5	33.5	64	22.6	0	0	---	0.00	29.978 
18:30	33.1	33.1	33.1	65	22.6	0	0	---	0.00	29.978 
18:35	32.7	32.7	32.7	66	22.6	0	0	---	0.00	29.979 
18:40	32.4	32.4	32.4	66	22.3	0	0	---	0.00	29.978 
18:45	31.9	31.9	31.9	67	22.2	0	0	---	0.00	29.980 
18:50	31.6	31.6	31.6	68	22.3	0	0	---	0.00	29.980 
18:55	31.3	31.3	31.3	69	22.3	0	0	---	0.00	29.980 
19:00	30.9	30.9	30.9	69	21.9	0	0	---	0.00	29.983 
19:05	30.6	30.6	30.6	70	22.0	0	0	---	0.00	29.983 
19:10	30.3	30.3	30.3	72	22.4	0	0	---	0.00	29.984 
19:15	30.1	30.1	30.1	73	22.5	0	0	---	0.00	29.984 
19:20	30.0	30.0	30.0	73	22.4	0	0	---	0.00	29.985 
19:25	29.8	29.8	29.8	74	22.5	0	0	---	0.00	29.987 
19:30	29.7	29.7	29.7	74	22.4	0	0	---	0.00	29.990 
19:35	29.4	29.4	29.4	74	22.2	0	0	---	0.00	29.992 
19:40	29.3	29.3	29.3	74	22.1	0	0	---	0.00	29.993 
19:45	29.0	29.0	29.0	74	21.8	0	0	---	0.00	29.994 
19:50	28.7	28.7	28.7	75	21.8	0	0	---	0.00	29.996 
19:55	28.4	28.4	28.4	76	21.8	0	0	---	0.00	29.997 
20:00	28.2	28.2	28.2	77	21.9	0	0	---	0.00	29.999 
20:05	28.1	28.1	28.1	77	21.8	0	0	---	0.00	29.998 
20:10	27.9	27.9	27.9	77	21.6	0	0	---	0.00	29.997 
20:15	27.8	27.8	27.8	78	21.8	0	0	---	0.00	30.001 
20:20	27.6	27.6	27.6	79	22.0	0	0	---	0.00	29.999 
20:25	27.8	27.8	27.8	79	22.2	0	0	---	0.00	29.999 
20:30	27.8	27.8	27.8	79	22.2	0	0	---	0.00	29.997 
20:35	27.6	27.6	27.6	79	22.0	0	0	---	0.00	29.997 
20:40	27.5	27.5	27.5	79	21.9	0	0	---	0.00	29.997 
20:45	27.3	27.3	27.3	79	21.7	0	0	---	0.00	29.998 
20:50	27.2	27.2	27.2	79	21.6	0	0	---	0.00	29.998 
20:55	27.0	27.0	27.0	80	21.7	0	0	---	0.00	29.997 
21:00	26.9	26.9	26.9	80	21.6	0	0	---	0.00	29.998 
21:05	26.9	26.9	26.9	81	21.9	0	0	---	0.00	29.994 
21:10	27.0	27.0	27.0	81	22.0	0	0	---	0.00	29.993 
21:15	27.2	27.2	27.2	81	22.2	0	0	---	0.00	29.992 
21:20	27.3	27.3	27.3	81	22.3	0	0	---	0.00	29.990 
21:25	27.2	27.2	27.2	81	22.2	0	0	---	0.00	29.991 
21:30	27.0	27.0	27.0	81	22.0	0	0	---	0.00	29.990 
21:35	26.9	26.9	26.9	81	21.9	0	0	---	0.00	29.989 
21:40	26.9	26.9	26.9	82	22.2	0	0	---	0.00	29.988 
21:45	26.9	26.9	26.9	81	21.9	0	0	---	0.00	29.987 
21:50	26.7	26.7	26.7	81	21.7	0	0	---	0.00	29.986 
21:55	26.4	26.4	26.4	81	21.4	0	0	---	0.00	29.986 
22:00	26.3	26.3	26.3	81	21.3	0	0	---	0.00	29.984 
22:05	26.0	26.0	26.0	81	21.0	0	0	---	0.00	29.980 
22:10	25.8	25.8	25.8	81	20.8	0	0	---	0.00	29.981 
22:15	25.6	25.6	25.6	82	20.9	0	0	---	0.00	29.983 
22:20	25.4	25.4	25.4	83	21.0	0	0	---	0.00	29.986 
22:25	25.3	25.3	25.3	83	20.9	0	0	---	0.00	29.986 
22:30	25.3	25.3	25.3	83	20.9	0	0	---	0.00	29.984 
22:35	25.1	25.1	25.1	83	20.7	0	0	---	0.00	29.983 
22:40	24.8	24.8	24.8	83	20.4	0	0	---	0.00	29.981 
22:45	24.7	24.7	24.7	84	20.6	0	0	---	0.00	29.979 
22:50	24.5	24.5	24.5	84	20.4	0	0	---	0.00	29.979 
22:55	24.5	24.5	24.5	84	20.4	0	0	---	0.00	29.979 
23:00	24.4	24.4	24.4	85	20.6	0	0	---	0.00	29.979 
23:05	24.2	24.2	24.2	85	20.4	0	0	---	0.00	29.976 
23:10	24.1	24.1	24.1	85	20.3	0	0	---	0.00	29.975 
23:15	24.1	24.1	24.1	85	20.3	0	0	---	0.00	29.974 
23:20	23.9	23.9	23.9	86	20.3	0	0	---	0.00	29.974 
23:25	23.9	23.9	23.9	86	20.3	0	0	---	0.00	29.975 
23:30	23.8	23.8	23.8	86	20.2	0	0	---	0.00	29.974 
23:35	23.8	23.8	23.8	86	20.2	0	0	---	0.00	29.976 
23:40	23.6	23.6	23.6	86	20.0	0	0	---	0.00	29.977 
23:45	23.6	23.6	23.6	87	20.3	0	0	---	0.00	29.977 
23:50	23.5	23.5	23.5	87	20.2	0	0	---	0.00	29.977 
23:55	23.3	23.3	23.3	87	20.0	0	0	---	0.00	29.979 

CoCoRaHS
IN-AL-39
A2 Web Hosting
Creative Commons License
GoDaddy
search engine by freefind advanced

loaded 2018-11-15 15:41:57 • last modified 2010-11-18 10:43:29
Privacy PolicyDisclaimer
• wx.awcolley.com is powered by PmWiki v.2002016 •
• all content (unless otherwise noted) © 2018 A W Colley